Time;durP1;ratioP1;P1;durP2;ratioP2;P2;SDS_P1;SDS_P2;PMS_P1;PMS_P2;Temp;Humidity;BMP_temperature;BMP_pressure;BME280_temperature;BME280_humidity;BME280_pressure;Samples;Min_cycle;Max_cycle;Signal;HPM_P1;HPM_P2
2022/05/14 00:02:12;;;;;;;5.20;2.10;;;15.10;99.90;;;;;;5034772;28;20203;-72
2022/05/14 00:04:38;;;;;;;4.80;1.73;;;15.10;99.90;;;;;;5034978;28;20166;-72
2022/05/14 00:07:04;;;;;;;3.00;1.30;;;15.10;99.90;;;;;;5034960;28;20409;-72
2022/05/14 00:09:30;;;;;;;3.60;1.83;;;15.20;99.90;;;;;;5044511;28;20207;-72
2022/05/14 00:14:39;;;;;;;4.77;1.60;;;15.00;99.90;;;;;;5074640;28;20385;-72
2022/05/14 00:17:05;;;;;;;5.37;1.57;;;15.00;99.90;;;;;;5056475;28;20788;-72
2022/05/14 00:19:31;;;;;;;3.43;1.40;;;15.00;99.90;;;;;;5073863;28;20596;-72
2022/05/14 00:21:57;;;;;;;3.03;1.50;;;14.90;99.90;;;;;;5074030;28;20163;-72
2022/05/14 00:24:23;;;;;;;6.23;1.60;;;14.70;99.90;;;;;;5074014;28;20399;-73
2022/05/14 00:26:49;;;;;;;3.40;1.57;;;14.70;99.90;;;;;;5073910;28;20163;-72
2022/05/14 00:29:15;;;;;;;5.07;1.33;;;14.90;99.90;;;;;;5074357;28;20913;-72
2022/05/14 00:31:41;;;;;;;2.77;1.30;;;14.90;99.90;;;;;;5073777;28;20396;-73
2022/05/14 00:34:07;;;;;;;3.80;1.47;;;14.80;99.90;;;;;;5073756;28;20167;-72
2022/05/14 00:36:33;;;;;;;2.00;1.47;;;14.70;99.90;;;;;;5073911;28;20536;-72
2022/05/14 00:38:59;;;;;;;4.87;1.50;;;14.70;99.90;;;;;;5072686;28;20214;-72
2022/05/14 00:41:27;;;;;;;4.17;1.60;;;14.70;99.90;;;;;;5073313;28;20454;-72
2022/05/14 00:43:55;;;;;;;2.97;1.77;;;14.50;99.90;;;;;;5073801;28;20193;-72
2022/05/14 00:46:41;;;;;;;2.37;1.50;;;14.50;99.90;;;;;;5073829;28;20403;-72
2022/05/14 00:49:08;;;;;;;4.33;1.20;;;14.30;99.90;;;;;;5073373;28;20396;-72
2022/05/14 00:51:35;;;;;;;3.30;1.30;;;14.40;99.90;;;;;;5073692;28;20418;-72
2022/05/14 00:54:15;;;;;;;5.50;1.50;;;14.60;99.90;;;;;;5073599;28;20424;-72
2022/05/14 00:56:46;;;;;;;2.87;1.30;;;14.70;99.90;;;;;;5073599;28;20397;-72
2022/05/14 00:59:16;;;;;;;1.63;1.33;;;14.70;99.90;;;;;;5073981;28;20453;-72
2022/05/14 01:01:42;;;;;;;4.47;1.50;;;14.80;99.90;;;;;;5073603;28;20773;-73
2022/05/14 01:04:09;;;;;;;2.10;1.33;;;14.80;99.90;;;;;;5064485;28;20435;-72
2022/05/14 01:06:37;;;;;;;2.80;1.33;;;14.80;99.90;;;;;;5055723;28;20401;-72
2022/05/14 01:09:05;;;;;;;3.93;1.80;;;14.70;99.90;;;;;;5053184;28;20407;-73
2022/05/14 01:11:32;;;;;;;4.23;1.90;;;14.70;99.90;;;;;;5073038;28;20444;-73
2022/05/14 01:13:57;;;;;;;2.90;1.57;;;14.80;99.90;;;;;;5073330;28;20990;-71
2022/05/14 01:16:23;;;;;;;2.27;1.70;;;14.80;99.90;;;;;;5073675;28;20405;-71
2022/05/14 01:18:49;;;;;;;4.27;1.67;;;14.80;99.90;;;;;;5073244;28;20169;-71
2022/05/14 01:21:40;;;;;;;2.00;1.20;;;14.80;99.90;;;;;;5073200;28;20211;-72
2022/05/14 01:27:02;;;;;;;1.83;1.60;;;14.60;99.90;;;;;;5073172;28;20370;-72
2022/05/14 01:29:28;;;;;;;2.20;1.10;;;14.50;99.90;;;;;;5073099;28;20468;-73
2022/05/14 01:31:55;;;;;;;2.43;1.30;;;14.40;99.90;;;;;;5072902;28;20406;-72
2022/05/14 01:34:28;;;;;;;3.50;1.87;;;14.40;99.90;;;;;;5072588;28;20161;-72
2022/05/14 01:36:55;;;;;;;2.80;1.60;;;14.40;99.90;;;;;;5054848;28;20416;-73
2022/05/14 01:39:20;;;;;;;2.87;1.80;;;14.40;99.90;;;;;;5072626;28;20405;-72
2022/05/14 01:41:46;;;;;;;5.50;1.67;;;14.20;99.90;;;;;;5054437;28;20946;-72
2022/05/14 01:44:12;;;;;;;4.17;1.50;;;14.30;99.90;;;;;;5072822;28;20167;-73
2022/05/14 01:46:38;;;;;;;3.97;1.50;;;14.30;99.90;;;;;;5073295;28;20176;-72
2022/05/14 01:49:04;;;;;;;3.07;1.73;;;14.30;99.90;;;;;;5072406;28;20167;-72
2022/05/14 01:51:30;;;;;;;2.60;1.47;;;14.10;99.90;;;;;;5073185;28;20174;-72
2022/05/14 01:53:56;;;;;;;3.03;1.80;;;14.00;99.90;;;;;;5072635;28;20242;-73
2022/05/14 01:56:21;;;;;;;3.10;1.03;;;14.00;99.90;;;;;;5072933;28;20412;-72
2022/05/14 01:58:47;;;;;;;3.50;1.50;;;13.90;99.90;;;;;;5072376;28;20430;-72
2022/05/14 02:01:25;;;;;;;2.17;1.67;;;13.90;99.90;;;;;;5072529;28;20192;-72
2022/05/14 02:03:57;;;;;;;4.67;1.77;;;13.80;99.90;;;;;;5072054;28;20782;-72
2022/05/14 02:06:24;;;;;;;3.07;1.80;;;13.70;99.90;;;;;;5060497;28;20505;-72
2022/05/14 02:08:50;;;;;;;2.97;1.47;;;13.70;99.90;;;;;;5032583;28;20410;-72
2022/05/14 02:11:16;;;;;;;2.63;1.43;;;13.80;99.90;;;;;;5071431;28;20815;-72
2022/05/14 02:13:45;;;;;;;5.57;1.67;;;13.80;99.90;;;;;;5072261;28;20435;-72
2022/05/14 02:16:11;;;;;;;1.60;1.50;;;13.70;99.90;;;;;;5072648;28;20501;-72
2022/05/14 02:18:37;;;;;;;1.67;1.13;;;13.80;99.90;;;;;;5072358;28;20748;-73
2022/05/14 02:21:05;;;;;;;3.13;1.60;;;13.80;99.90;;;;;;5072570;28;20449;-72
2022/05/14 02:23:32;;;;;;;2.53;1.40;;;13.90;99.90;;;;;;5072764;28;20415;-72
2022/05/14 02:25:58;;;;;;;2.27;1.30;;;13.90;99.90;;;;;;5072564;28;20405;-72
2022/05/14 02:28:23;;;;;;;3.90;1.70;;;14.00;99.90;;;;;;5072499;28;20797;-72
2022/05/14 02:30:49;;;;;;;3.10;1.47;;;14.00;99.90;;;;;;5072744;28;20647;-72
2022/05/14 02:33:15;;;;;;;6.70;1.80;;;13.90;99.90;;;;;;5072351;28;20289;-72
2022/05/14 02:35:42;;;;;;;1.63;1.37;;;13.80;99.90;;;;;;5072603;28;20166;-72
2022/05/14 02:38:08;;;;;;;2.27;1.30;;;13.80;99.90;;;;;;5072548;28;20845;-72
2022/05/14 02:40:34;;;;;;;2.83;1.40;;;13.70;99.90;;;;;;5054494;28;20537;-72
2022/05/14 02:43:00;;;;;;;1.80;1.57;;;13.60;99.90;;;;;;5054266;28;20499;-72
2022/05/14 02:45:25;;;;;;;6.63;1.83;;;13.60;99.90;;;;;;5072699;28;20435;-72
2022/05/14 02:47:51;;;;;;;2.83;1.70;;;13.60;99.90;;;;;;5072552;28;20458;-73
2022/05/14 02:50:18;;;;;;;4.77;1.40;;;13.60;99.90;;;;;;5072889;28;20207;-72
2022/05/14 02:52:44;;;;;;;4.77;1.70;;;13.60;99.90;;;;;;5075702;28;20304;-70
2022/05/14 02:55:10;;;;;;;2.13;1.40;;;13.60;99.90;;;;;;5076091;28;20562;-72
2022/05/14 02:57:36;;;;;;;2.40;1.37;;;13.50;99.90;;;;;;5075482;28;20802;-72
2022/05/14 03:00:04;;;;;;;1.90;1.70;;;13.50;99.90;;;;;;5075520;28;20496;-72
2022/05/14 03:02:30;;;;;;;2.60;1.63;;;13.50;99.90;;;;;;5099497;22;20315;-72
2022/05/14 03:04:55;;;;;;;3.67;1.40;;;13.50;99.90;;;;;;5049164;28;20494;-71
2022/05/14 03:07:21;;;;;;;5.53;1.67;;;13.50;99.90;;;;;;5034003;28;20239;-72
2022/05/14 03:09:47;;;;;;;2.30;1.47;;;13.40;99.90;;;;;;5046107;28;20269;-71
2022/05/14 03:12:14;;;;;;;2.20;1.47;;;13.40;99.90;;;;;;5054856;28;20182;-71
2022/05/14 03:14:40;;;;;;;4.03;2.10;;;13.30;99.90;;;;;;5054825;28;20194;-71
2022/05/14 03:17:06;;;;;;;2.50;1.23;;;13.40;99.90;;;;;;5054985;28;20405;-71
2022/05/14 03:19:32;;;;;;;3.30;1.93;;;13.40;99.90;;;;;;5054675;28;20855;-72
2022/05/14 03:21:58;;;;;;;2.40;1.87;;;13.40;99.90;;;;;;5054610;28;20412;-74
2022/05/14 03:24:25;;;;;;;1.77;1.50;;;13.50;99.90;;;;;;5054064;28;20201;-73
2022/05/14 03:26:50;;;;;;;4.63;1.70;;;13.40;99.90;;;;;;5054730;28;20398;-72
2022/05/14 03:29:16;;;;;;;2.50;1.50;;;13.40;99.90;;;;;;5054566;28;20440;-71
2022/05/14 03:31:42;;;;;;;3.50;1.87;;;13.30;99.90;;;;;;5054449;28;20209;-70
2022/05/14 03:34:12;;;;;;;5.10;1.50;;;13.40;99.90;;;;;;5054067;28;20188;-71
2022/05/14 03:36:41;;;;;;;2.07;1.87;;;13.50;99.90;;;;;;5056195;28;20159;-72
2022/05/14 03:39:07;;;;;;;2.00;1.80;;;13.50;99.90;;;;;;5056336;28;20397;-71
2022/05/14 03:41:34;;;;;;;3.07;1.87;;;13.40;99.90;;;;;;5054943;28;20453;-71
2022/05/14 03:43:59;;;;;;;2.90;2.00;;;13.40;99.90;;;;;;5054449;28;20451;-71
2022/05/14 03:46:25;;;;;;;2.37;1.40;;;13.30;99.90;;;;;;5036492;28;21008;-71
2022/05/14 03:48:51;;;;;;;3.07;1.70;;;13.20;99.90;;;;;;5053960;28;20169;-71
2022/05/14 03:51:16;;;;;;;1.90;1.50;;;13.30;99.90;;;;;;5054131;28;20253;-71
2022/05/14 03:53:42;;;;;;;3.50;1.70;;;13.30;99.90;;;;;;5053691;28;20215;-71
2022/05/14 03:56:09;;;;;;;2.40;1.60;;;13.30;99.90;;;;;;5054327;28;20232;-71
2022/05/14 03:58:35;;;;;;;2.23;1.70;;;13.30;99.90;;;;;;5054499;28;20471;-71
2022/05/14 04:01:02;;;;;;;2.37;1.50;;;13.30;99.90;;;;;;5054356;28;20790;-71
2022/05/14 04:03:28;;;;;;;1.70;1.60;;;13.30;99.90;;;;;;5052584;28;20981;-71
2022/05/14 04:05:54;;;;;;;2.20;1.57;;;13.40;99.90;;;;;;5053459;28;20412;-72
2022/05/14 04:08:20;;;;;;;2.20;1.50;;;13.40;99.90;;;;;;5053740;28;20166;-71
2022/05/14 04:10:45;;;;;;;1.83;1.57;;;13.30;99.90;;;;;;5053936;28;20236;-71
2022/05/14 04:13:12;;;;;;;2.30;1.70;;;13.30;99.90;;;;;;5053761;28;20190;-71
2022/05/14 04:15:38;;;;;;;1.70;1.60;;;13.40;99.90;;;;;;5053780;28;20175;-71
2022/05/14 04:18:04;;;;;;;2.17;1.63;;;13.40;99.90;;;;;;5053545;28;20489;-71
2022/05/14 04:20:29;;;;;;;2.47;1.60;;;13.30;99.90;;;;;;5053768;28;20552;-70
2022/05/14 04:22:56;;;;;;;3.37;1.80;;;13.30;99.90;;;;;;5053237;28;20209;-71
2022/05/14 04:25:23;;;;;;;5.70;1.80;;;13.40;99.90;;;;;;5053413;28;20250;-71
2022/05/14 04:27:49;;;;;;;5.27;1.67;;;13.40;99.90;;;;;;5053538;28;20428;-70
2022/05/14 04:30:16;;;;;;;5.00;2.00;;;13.50;99.90;;;;;;5053431;28;20410;-70
2022/05/14 04:32:42;;;;;;;4.00;2.17;;;13.50;99.90;;;;;;5053325;28;20403;-72
2022/05/14 04:35:09;;;;;;;3.07;1.80;;;13.60;99.90;;;;;;5053463;28;20426;-70
2022/05/14 04:37:36;;;;;;;3.27;1.87;;;13.50;99.90;;;;;;5053280;28;20419;-71
2022/05/14 04:40:02;;;;;;;1.70;1.50;;;13.50;99.90;;;;;;5053911;28;20982;-72
2022/05/14 04:42:28;;;;;;;2.57;1.80;;;13.40;99.90;;;;;;5052419;28;20421;-71
2022/05/14 04:44:53;;;;;;;2.77;2.30;;;13.40;99.90;;;;;;5053104;28;20404;-70
2022/05/14 04:47:19;;;;;;;2.57;2.00;;;13.40;99.90;;;;;;5053473;28;20169;-71
2022/05/14 04:49:47;;;;;;;5.37;2.50;;;13.40;99.90;;;;;;5035356;28;20174;-70
2022/05/14 04:52:13;;;;;;;3.23;1.93;;;13.40;99.90;;;;;;5053010;28;20417;-70
2022/05/14 04:54:39;;;;;;;2.43;2.03;;;13.40;99.90;;;;;;5053552;28;20429;-71
2022/05/14 04:57:05;;;;;;;3.83;2.07;;;13.40;99.90;;;;;;5053162;28;20416;-71
2022/05/14 04:59:32;;;;;;;7.03;2.30;;;13.50;99.90;;;;;;5053026;28;20409;-70
2022/05/14 05:04:44;;;;;;;6.07;1.60;;;13.60;99.90;;;;;;5053203;28;20507;-71
2022/05/14 05:07:10;;;;;;;2.70;1.70;;;13.60;99.90;;;;;;5035211;28;20397;-71
2022/05/14 05:09:36;;;;;;;2.13;1.93;;;13.60;99.90;;;;;;5053014;28;20405;-70
2022/05/14 05:12:02;;;;;;;3.70;2.00;;;13.60;99.90;;;;;;5053158;28;20404;-70
2022/05/14 05:14:28;;;;;;;3.10;2.17;;;13.60;99.90;;;;;;5052588;28;20439;-70
2022/05/14 05:16:54;;;;;;;2.57;2.03;;;13.70;99.90;;;;;;5052577;28;20407;-71
2022/05/14 05:19:20;;;;;;;2.60;1.80;;;13.80;99.90;;;;;;5052852;28;20179;-71
2022/05/14 05:21:45;;;;;;;3.63;1.83;;;13.80;99.90;;;;;;5035070;28;20250;-71
2022/05/14 05:24:12;;;;;;;2.10;1.90;;;13.80;99.90;;;;;;5053279;28;20189;-71
2022/05/14 05:26:37;;;;;;;4.03;1.90;;;14.00;99.90;;;;;;5052922;28;20673;-71
2022/05/14 05:29:04;;;;;;;3.03;1.83;;;14.10;99.90;;;;;;5053090;28;20488;-71
2022/05/14 05:31:31;;;;;;;1.97;1.47;;;14.30;99.90;;;;;;5052386;28;20662;-71
2022/05/14 05:33:57;;;;;;;3.70;1.80;;;14.40;99.90;;;;;;5052821;28;20769;-71
2022/05/14 05:36:23;;;;;;;2.10;1.90;;;14.60;99.90;;;;;;5052307;28;20465;-70
2022/05/14 05:38:51;;;;;;;3.40;1.90;;;14.70;99.90;;;;;;5052763;28;20412;-71
2022/05/14 05:41:17;;;;;;;5.03;2.07;;;14.70;99.90;;;;;;5051647;28;20231;-71
2022/05/14 05:43:42;;;;;;;3.63;2.20;;;14.80;99.90;;;;;;5052810;28;20482;-72
2022/05/14 05:46:08;;;;;;;5.03;2.00;;;14.90;99.90;;;;;;5034798;28;20488;-71
2022/05/14 05:48:34;;;;;;;2.00;1.70;;;15.10;99.90;;;;;;5052713;28;20597;-72
2022/05/14 05:50:59;;;;;;;3.90;1.93;;;15.10;99.90;;;;;;5052353;28;20409;-72
2022/05/14 05:56:46;;;;;;;2.80;2.40;;;15.30;99.90;;;;;;5052438;28;20191;-69
2022/05/14 05:58:55;;;;;;;4.17;2.03;;;15.40;99.90;;;;;;5043419;28;20432;-72
2022/05/14 06:01:20;;;;;;;2.40;2.20;;;15.60;99.90;;;;;;5052068;28;20452;-72
2022/05/14 06:03:48;;;;;;;4.27;2.10;;;15.70;99.90;;;;;;5052058;28;20516;-72
2022/05/14 06:06:14;;;;;;;5.77;2.07;;;15.80;99.90;;;;;;5052040;28;20628;-72
2022/05/14 06:08:40;;;;;;;2.53;1.60;;;15.90;99.90;;;;;;5051656;28;20415;-71
2022/05/14 06:11:06;;;;;;;2.70;1.93;;;16.00;99.90;;;;;;5050590;28;20465;-72
2022/05/14 06:13:32;;;;;;;4.30;2.60;;;16.20;99.90;;;;;;5052145;28;20190;-71
2022/05/14 06:16:00;;;;;;;2.63;2.00;;;16.30;99.90;;;;;;5052216;28;20273;-72
2022/05/14 06:18:26;;;;;;;6.07;2.93;;;16.40;99.90;;;;;;5052301;28;20415;-71
2022/05/14 06:20:52;;;;;;;4.30;2.70;;;16.50;99.90;;;;;;5052753;28;20470;-71
2022/05/14 06:23:18;;;;;;;10.27;3.17;;;16.70;99.90;;;;;;5052580;28;20435;-71
2022/05/14 06:25:44;;;;;;;3.10;2.47;;;16.80;99.90;;;;;;5052931;28;20405;-72
2022/05/14 06:28:10;;;;;;;6.17;2.57;;;16.90;99.90;;;;;;5056094;28;20424;-71
2022/05/14 06:30:41;;;;;;;3.83;2.63;;;17.10;99.90;;;;;;5056071;28;20166;-71
2022/05/14 06:33:07;;;;;;;3.10;2.47;;;17.20;99.90;;;;;;5056089;28;20187;-71
2022/05/14 06:35:35;;;;;;;3.63;2.20;;;17.40;99.90;;;;;;5055636;28;20405;-71
2022/05/14 06:38:02;;;;;;;3.57;2.20;;;17.50;99.90;;;;;;5055417;28;20484;-71
2022/05/14 06:40:28;;;;;;;4.83;2.07;;;17.60;99.90;;;;;;5054140;28;20452;-71
2022/05/14 06:42:54;;;;;;;3.43;1.93;;;17.80;99.90;;;;;;5055518;28;20478;-71
2022/05/14 06:45:20;;;;;;;4.80;2.60;;;17.90;99.90;;;;;;5055461;28;20450;-70
2022/05/14 06:47:45;;;;;;;1.93;1.70;;;17.90;99.90;;;;;;5055326;28;20202;-71
2022/05/14 06:50:11;;;;;;;4.37;2.27;;;18.10;99.90;;;;;;5055141;28;20780;-72
2022/05/14 06:52:40;;;;;;;3.93;2.37;;;18.30;99.90;;;;;;5036235;28;20205;-70
2022/05/14 06:55:07;;;;;;;3.13;1.90;;;18.40;99.90;;;;;;5055069;28;20923;-71
2022/05/14 06:57:33;;;;;;;2.90;1.93;;;18.50;99.90;;;;;;5055819;28;20402;-70
2022/05/14 06:59:59;;;;;;;4.13;2.03;;;18.60;99.90;;;;;;5055454;28;20448;-71
2022/05/14 07:02:27;;;;;;;3.00;2.10;;;18.70;99.90;;;;;;5054969;28;20444;-72
2022/05/14 07:07:38;;;;;;;3.63;1.80;;;18.50;99.90;;;;;;5055304;28;20377;-70
2022/05/14 07:10:04;;;;;;;3.63;1.80;;;18.50;99.90;;;;;;5054533;28;20409;-70
2022/05/14 07:12:30;;;;;;;2.13;1.60;;;18.40;99.90;;;;;;5054968;28;20241;-70
2022/05/14 07:14:56;;;;;;;4.10;1.93;;;18.50;99.90;;;;;;5054995;28;20401;-70
2022/05/14 07:17:22;;;;;;;3.67;2.40;;;18.50;99.90;;;;;;5054323;28;20417;-70
2022/05/14 07:19:49;;;;;;;2.90;1.87;;;18.50;99.90;;;;;;5054294;28;20194;-71
2022/05/14 07:22:15;;;;;;;3.77;1.80;;;18.70;99.90;;;;;;5054938;28;20678;-70
2022/05/14 07:24:42;;;;;;;5.33;1.97;;;18.70;99.90;;;;;;5054478;28;20425;-72
2022/05/14 07:27:11;;;;;;;2.40;2.20;;;18.70;99.90;;;;;;5055282;28;20904;-71
2022/05/14 07:29:40;;;;;;;5.10;2.20;;;18.60;99.90;;;;;;5036824;28;20405;-71
2022/05/14 07:32:09;;;;;;;4.53;2.27;;;18.70;99.90;;;;;;5054014;28;20443;-71
2022/05/14 07:34:35;;;;;;;3.10;1.70;;;18.40;99.90;;;;;;5034478;28;20496;-71
2022/05/14 07:37:16;;;;;;;4.60;1.40;;;18.30;99.90;;;;;;5017484;28;20493;-70
2022/05/14 07:39:55;;;;;;;1.83;1.47;;;18.60;99.90;;;;;;5037751;28;20201;-72
2022/05/14 07:42:37;;;;;;;2.83;1.80;;;18.80;99.90;;;;;;5054765;28;20404;-71
2022/05/14 07:45:05;;;;;;;3.87;1.90;;;18.90;99.90;;;;;;5054745;28;20414;-71
2022/05/14 07:47:32;;;;;;;5.07;2.90;;;19.00;99.90;;;;;;5054057;28;20401;-72
2022/05/14 07:49:58;;;;;;;4.60;2.80;;;19.10;99.90;;;;;;5054602;28;20401;-71
2022/05/14 07:52:24;;;;;;;5.80;3.20;;;19.10;99.90;;;;;;5054948;28;20441;-72
2022/05/14 07:54:49;;;;;;;3.10;2.80;;;19.20;99.90;;;;;;5054077;28;20405;-72
2022/05/14 07:57:18;;;;;;;4.20;2.57;;;19.20;99.90;;;;;;5054872;28;20170;-71
2022/05/14 07:59:45;;;;;;;5.30;3.07;;;19.20;99.90;;;;;;5054301;28;20190;-71
2022/05/14 08:02:31;;;;;;;5.93;3.33;;;19.30;99.90;;;;;;5053755;28;20408;-70
2022/05/14 08:04:57;;;;;;;3.80;2.90;;;19.40;99.90;;;;;;5053049;28;20872;-71
2022/05/14 08:07:23;;;;;;;5.20;2.80;;;19.40;99.90;;;;;;5054112;28;20397;-70
2022/05/14 08:09:49;;;;;;;4.50;2.73;;;19.40;99.90;;;;;;5054262;28;20790;-71
2022/05/14 08:12:15;;;;;;;3.90;2.33;;;19.40;99.90;;;;;;5054275;28;20615;-70
2022/05/14 08:14:41;;;;;;;4.70;2.70;;;19.20;99.90;;;;;;5054001;28;20206;-72
2022/05/14 08:17:10;;;;;;;4.77;2.67;;;19.20;99.90;;;;;;5054060;28;20484;-71
2022/05/14 08:19:36;;;;;;;4.53;2.43;;;19.40;99.90;;;;;;5053639;28;20174;-71
2022/05/14 08:24:47;;;;;;;4.73;3.00;;;19.90;99.90;;;;;;5054029;28;20528;-71
2022/05/14 08:27:13;;;;;;;2.30;2.03;;;20.00;99.90;;;;;;5035911;28;20437;-70
2022/05/14 08:29:39;;;;;;;6.03;2.67;;;19.80;99.90;;;;;;5054232;28;20167;-70
2022/05/14 08:32:05;;;;;;;2.90;2.33;;;19.60;99.90;;;;;;5035614;28;20600;-71
2022/05/14 08:34:32;;;;;;;5.60;2.43;;;19.60;99.90;;;;;;5053037;28;20958;-71
2022/05/14 08:36:58;;;;;;;5.30;2.60;;;19.90;99.90;;;;;;5053659;28;20405;-71
2022/05/14 08:39:24;;;;;;;3.10;2.00;;;19.80;99.90;;;;;;5052202;28;20420;-71
2022/05/14 08:41:52;;;;;;;4.97;2.40;;;19.60;99.90;;;;;;5053015;28;20189;-71
2022/05/14 08:44:21;;;;;;;5.53;2.63;;;19.40;99.90;;;;;;5053522;28;20513;-71
2022/05/14 08:46:53;;;;;;;3.00;1.87;;;19.80;99.90;;;;;;5053261;28;20428;-70
2022/05/14 08:49:45;;;;;;;4.07;2.00;;;19.90;99.60;;;;;;5050710;28;20921;-70
2022/05/14 08:52:18;;;;;;;3.83;2.03;;;19.90;99.20;;;;;;5034940;28;20954;-70
2022/05/14 08:54:43;;;;;;;3.37;2.10;;;19.80;99.00;;;;;;5053401;28;20471;-70
2022/05/14 08:57:25;;;;;;;3.20;1.60;;;20.00;98.90;;;;;;5053188;28;20442;-71
2022/05/14 08:59:55;;;;;;;3.03;1.90;;;20.20;98.80;;;;;;5053182;28;20179;-70
2022/05/14 09:02:27;;;;;;;3.50;2.20;;;20.50;99.30;;;;;;5053143;28;20412;-71
2022/05/14 09:05:06;;;;;;;3.93;2.20;;;20.60;98.50;;;;;;5097678;22;20910;-74
2022/05/14 09:07:31;;;;;;;3.73;2.10;;;20.80;98.90;;;;;;5074263;28;20392;-75
2022/05/14 09:09:58;;;;;;;4.13;2.00;;;20.80;97.80;;;;;;5072288;28;20420;-75
2022/05/14 09:12:32;;;;;;;4.33;1.70;;;20.80;97.00;;;;;;5073969;28;20162;-74
2022/05/14 09:15:05;;;;;;;4.23;2.20;;;20.60;97.40;;;;;;5073709;28;20446;-75
2022/05/14 09:17:31;;;;;;;3.23;2.30;;;20.70;97.40;;;;;;5073207;28;20420;-74
2022/05/14 09:19:59;;;;;;;4.20;2.17;;;21.00;96.90;;;;;;5072939;28;20436;-74
2022/05/14 09:22:47;;;;;;;7.57;2.13;;;21.10;96.40;;;;;;5073384;28;20488;-73
2022/05/14 09:25:19;;;;;;;2.63;1.70;;;21.40;97.50;;;;;;5073070;28;20421;-74
2022/05/14 09:28:25;;;;;;;2.60;1.87;;;21.50;95.90;;;;;;5073558;28;20472;-72
2022/05/14 09:30:57;;;;;;;3.60;2.07;;;21.50;95.90;;;;;;5033143;28;20419;-75
2022/05/14 09:33:27;;;;;;;3.30;2.10;;;21.40;96.50;;;;;;5073190;28;20439;-73
2022/05/14 09:35:59;;;;;;;5.23;2.40;;;21.40;97.00;;;;;;5072848;28;20406;-73
2022/05/14 09:38:26;;;;;;;7.03;2.30;;;21.20;97.30;;;;;;5071807;28;20854;-73
2022/05/14 09:40:55;;;;;;;8.03;2.70;;;21.30;97.50;;;;;;5055282;28;20444;-73
2022/05/14 09:43:20;;;;;;;4.27;1.90;;;21.40;97.00;;;;;;5073003;28;20427;-72
2022/05/14 09:46:26;;;;;;;2.10;1.70;;;21.50;96.70;;;;;;5072792;28;20819;-73
2022/05/14 09:49:00;;;;;;;6.07;2.27;;;21.40;96.30;;;;;;5061414;28;20181;-75
2022/05/14 09:51:28;;;;;;;4.27;2.20;;;21.40;96.40;;;;;;5072569;28;20396;-74
2022/05/14 09:53:55;;;;;;;3.27;2.00;;;21.60;96.20;;;;;;5053172;28;20437;-74
2022/05/14 09:56:47;;;;;;;4.17;2.20;;;21.80;95.50;;;;;;5073059;28;20400;-74
2022/05/14 09:59:15;;;;;;;3.80;2.07;;;21.50;95.90;;;;;;5053380;28;20515;-73
2022/05/14 10:01:47;;;;;;;3.70;2.70;;;21.50;96.30;;;;;;5075755;28;20450;-74
2022/05/14 10:04:31;;;;;;;3.63;1.83;;;21.70;96.40;;;;;;5067627;28;20547;-73
2022/05/14 10:07:05;;;;;;;2.90;2.00;;;22.10;97.00;;;;;;5076939;28;20392;-72
2022/05/14 10:09:51;;;;;;;3.47;2.17;;;22.40;95.30;;;;;;5057378;28;20915;-73
2022/05/14 10:12:24;;;;;;;2.43;2.10;;;21.90;95.10;;;;;;5076552;28;20479;-74
2022/05/14 10:14:49;;;;;;;3.13;1.70;;;21.60;95.40;;;;;;5075663;28;20412;-74
2022/05/14 10:17:52;;;;;;;2.53;2.10;;;21.70;95.80;;;;;;5076784;28;20831;-74
2022/05/14 10:20:28;;;;;;;6.37;1.80;;;21.80;94.70;;;;;;5075343;28;20189;-74
2022/05/14 10:29:15;;;;;;;4.87;2.10;;;22.10;94.70;;;;;;5076750;28;20730;-73
2022/05/14 10:32:04;;;;;;;6.17;2.20;;;22.30;94.20;;;;;;5077109;28;20487;-74
2022/05/14 10:34:39;;;;;;;3.83;1.90;;;22.50;93.90;;;;;;5076786;28;20477;-74
2022/05/14 10:37:12;;;;;;;3.40;1.83;;;22.30;94.20;;;;;;5058827;28;20424;-73
2022/05/14 10:39:46;;;;;;;2.63;2.20;;;22.30;94.70;;;;;;5077127;28;20429;-74
2022/05/14 10:42:34;;;;;;;4.67;2.20;;;22.40;94.60;;;;;;5075647;28;20416;-73
2022/05/14 10:45:17;;;;;;;5.87;1.80;;;22.60;94.10;;;;;;5066236;28;20850;-75
2022/05/14 10:47:48;;;;;;;2.30;1.80;;;22.70;93.90;;;;;;5077136;28;20394;-73
2022/05/14 10:50:21;;;;;;;3.63;1.77;;;22.80;93.70;;;;;;5076982;28;20464;-73
2022/05/14 10:52:49;;;;;;;4.50;1.87;;;23.00;93.70;;;;;;5076869;28;20748;-73
2022/05/14 10:55:18;;;;;;;3.90;1.73;;;23.00;92.80;;;;;;5075708;28;20466;-74
2022/05/14 10:57:48;;;;;;;6.67;2.70;;;23.00;93.30;;;;;;5058037;28;20413;-74
2022/05/14 11:00:32;;;;;;;5.30;2.30;;;23.00;93.00;;;;;;5076165;28;20456;-73
2022/05/14 11:03:00;;;;;;;4.00;1.70;;;23.00;92.80;;;;;;5036436;28;20377;-73
2022/05/14 11:05:49;;;;;;;2.50;1.67;;;23.10;91.40;;;;;;5035625;28;20421;-74
2022/05/14 11:08:37;;;;;;;2.40;1.70;;;23.40;90.80;;;;;;5036312;28;20375;-73
2022/05/14 11:11:17;;;;;;;3.47;1.77;;;23.80;90.10;;;;;;5035427;28;20417;-74
2022/05/14 11:14:03;;;;;;;4.53;1.90;;;23.60;91.00;;;;;;5035889;28;20944;-74
2022/05/14 11:16:57;;;;;;;2.87;1.97;;;23.70;91.00;;;;;;5035677;28;20379;-71
2022/05/14 11:19:33;;;;;;;4.17;1.50;;;24.30;89.60;;;;;;5026865;28;20428;-73
2022/05/14 11:22:01;;;;;;;5.27;2.00;;;25.80;85.90;;;;;;5036185;28;20910;-73
2022/05/14 11:24:42;;;;;;;3.57;1.30;;;27.20;83.10;;;;;;5035463;28;20433;-72
2022/05/14 11:27:09;;;;;;;4.23;1.40;;;27.30;79.90;;;;;;5035731;28;20386;-73
2022/05/14 11:29:49;;;;;;;4.10;1.80;;;29.20;78.00;;;;;;5035484;28;20405;-74
2022/05/14 11:32:18;;;;;;;4.50;2.30;;;29.80;70.50;;;;;;5067680;28;20402;-74
2022/05/14 11:34:56;;;;;;;3.37;2.03;;;28.90;69.60;;;;;;5074916;28;20423;-73
2022/05/14 11:37:35;;;;;;;2.67;1.90;;;28.10;70.20;;;;;;5075061;28;20419;-73
2022/05/14 11:40:19;;;;;;;3.60;1.67;;;28.80;68.50;;;;;;5075144;28;20865;-74
2022/05/14 11:43:06;;;;;;;2.93;1.43;;;29.00;66.90;;;;;;5056172;28;20508;-74
2022/05/14 11:45:33;;;;;;;3.70;1.60;;;28.80;66.60;;;;;;5051976;28;20425;-73
2022/05/14 11:48:05;;;;;;;1.73;1.33;;;29.60;66.60;;;;;;5055579;28;21035;-73
2022/05/14 11:50:50;;;;;;;5.50;1.70;;;30.70;63.60;;;;;;5055046;28;20436;-74
2022/05/14 11:53:26;;;;;;;2.50;1.53;;;30.90;60.50;;;;;;5055001;28;20385;-75
2022/05/14 11:56:05;;;;;;;6.30;2.10;;;30.80;59.50;;;;;;5055022;28;20389;-74
2022/05/14 11:58:46;;;;;;;1.77;1.40;;;30.80;59.50;;;;;;5055329;28;20404;-74
2022/05/14 12:01:26;;;;;;;1.80;1.43;;;29.90;59.90;;;;;;5054486;28;20449;-74
2022/05/14 12:03:53;;;;;;;4.20;1.43;;;28.30;61.30;;;;;;5054293;28;20594;-74
2022/05/14 12:06:46;;;;;;;3.97;1.70;;;29.80;61.00;;;;;;5036545;28;20411;-74
2022/05/14 12:09:30;;;;;;;3.10;1.57;;;31.40;57.00;;;;;;5053218;28;20409;-74
2022/05/14 12:12:12;;;;;;;2.60;1.33;;;31.00;55.90;;;;;;5054935;28;20890;-74
2022/05/14 12:14:39;;;;;;;3.53;1.23;;;30.60;57.60;;;;;;5054635;28;20793;-75
2022/05/14 12:17:08;;;;;;;2.00;1.47;;;32.80;54.00;;;;;;5054260;28;20818;-73
2022/05/14 12:19:39;;;;;;;4.57;1.40;;;32.80;53.30;;;;;;5054349;28;20405;-74
2022/05/14 12:22:15;;;;;;;5.90;1.40;;;32.20;53.50;;;;;;5054659;28;20421;-74
2022/05/14 12:24:56;;;;;;;4.30;1.20;;;33.60;51.80;;;;;;5053523;28;20429;-73
2022/05/14 12:27:22;;;;;;;3.53;1.40;;;31.40;53.10;;;;;;5036558;28;20966;-73
2022/05/14 12:30:00;;;;;;;2.27;1.50;;;31.00;53.00;;;;;;5054211;28;20393;-75
2022/05/14 12:35:25;;;;;;;2.17;1.20;;;34.30;48.40;;;;;;5074105;28;20420;-74
2022/05/14 12:37:56;;;;;;;4.07;1.30;;;32.90;49.20;;;;;;5074382;28;20380;-75
2022/05/14 12:40:26;;;;;;;3.43;1.47;;;32.10;52.70;;;;;;5074106;28;21035;-75
2022/05/14 12:42:52;;;;;;;2.00;1.20;;;32.40;50.20;;;;;;5073920;28;20405;-74
2022/05/14 12:45:18;;;;;;;2.70;1.63;;;31.70;50.20;;;;;;5073774;28;20558;-74
2022/05/14 12:47:46;;;;;;;3.97;1.40;;;30.10;53.10;;;;;;5073672;28;20461;-73
2022/05/14 12:50:30;;;;;;;2.23;1.20;;;29.20;55.10;;;;;;5073459;28;20165;-73
2022/05/14 12:52:59;;;;;;;3.57;1.20;;;29.50;53.60;;;;;;5073919;28;20369;-74
2022/05/14 12:55:26;;;;;;;3.20;1.30;;;31.20;50.90;;;;;;5073759;28;20401;-74
2022/05/14 12:57:53;;;;;;;1.90;1.20;;;32.80;48.60;;;;;;5073776;28;20419;-75
2022/05/14 13:00:23;;;;;;;1.67;1.30;;;32.70;49.20;;;;;;5074017;28;20813;-74
2022/05/14 13:03:04;;;;;;;2.13;1.20;;;33.90;47.70;;;;;;5073714;28;20421;-74
2022/05/14 13:05:35;;;;;;;3.10;1.70;;;32.40;48.20;;;;;;5059129;28;20432;-74
2022/05/14 13:08:10;;;;;;;3.43;1.47;;;34.30;47.90;;;;;;5045872;28;20432;-74
2022/05/14 13:10:38;;;;;;;5.13;1.83;;;34.30;46.50;;;;;;5035905;28;20819;-74
2022/05/14 13:13:08;;;;;;;2.70;2.20;;;34.40;45.90;;;;;;5053538;28;20409;-74
2022/05/14 13:15:36;;;;;;;2.80;1.43;;;35.00;46.30;;;;;;5053549;28;20478;-75
2022/05/14 13:18:21;;;;;;;3.50;1.37;;;33.30;45.80;;;;;;5053448;28;20409;-74
2022/05/14 13:20:55;;;;;;;2.63;1.20;;;32.60;46.70;;;;;;5053250;28;20818;-74
2022/05/14 13:23:21;;;;;;;4.40;1.60;;;32.70;47.20;;;;;;5035139;28;20514;-74
2022/05/14 13:26:03;;;;;;;2.97;1.40;;;32.80;47.00;;;;;;5053403;28;20405;-75
2022/05/14 13:28:32;;;;;;;2.47;1.30;;;34.30;44.90;;;;;;5053874;28;20878;-75